Time;durP1;ratioP1;P1;durP2;ratioP2;P2;SDS_P1;SDS_P2;PMS_P1;PMS_P2;Temp;Humidity;BMP_temperature;BMP_pressure;BME280_temperature;BME280_humidity;BME280_pressure;Samples;Min_cycle;Max_cycle;Signal;HPM_P1;HPM_P2
2022/04/18 00:02:02;;;;;;;19.33;10.83;;;;;;;5.76;71.10;101169.25;5071824;28;20236;-72
2022/04/18 00:04:28;;;;;;;11.70;9.93;;;;;;;5.45;71.60;101169.03;5070880;28;20236;-72
2022/04/18 00:06:53;;;;;;;11.87;9.27;;;;;;;5.67;71.78;101166.22;5071022;28;20202;-72
2022/04/18 00:09:18;;;;;;;16.07;10.60;;;;;;;5.77;71.86;101165.44;5073602;28;20181;-71
2022/04/18 00:11:44;;;;;;;14.13;10.20;;;;;;;5.84;71.82;101168.75;5072511;28;20618;-71
2022/04/18 00:14:10;;;;;;;11.70;9.47;;;;;;;5.66;71.69;101164.59;5072254;28;20188;-72
2022/04/18 00:16:36;;;;;;;11.03;8.80;;;;;;;5.67;71.68;101156.19;5073511;28;20262;-71
2022/04/18 00:19:01;;;;;;;11.60;10.13;;;;;;;5.45;71.16;101150.06;5073531;28;20631;-72
2022/04/18 00:21:27;;;;;;;16.43;10.90;;;;;;;5.45;70.84;101151.94;5073508;28;20232;-72
2022/04/18 00:23:53;;;;;;;13.17;10.10;;;;;;;5.42;71.78;101155.19;5073350;28;20166;-72
2022/04/18 00:26:18;;;;;;;14.77;10.40;;;;;;;5.60;71.49;101162.91;5073230;28;20202;-72
2022/04/18 00:28:43;;;;;;;19.87;11.13;;;;;;;5.42;71.44;101147.06;5072833;28;20178;-72
2022/04/18 00:31:09;;;;;;;12.23;10.53;;;;;;;5.45;71.86;101146.53;5073292;28;20167;-72
2022/04/18 00:33:34;;;;;;;18.87;10.30;;;;;;;5.47;72.33;101145.19;5073033;28;20178;-73
2022/04/18 00:36:00;;;;;;;11.80;10.37;;;;;;;5.09;73.40;101146.25;5073526;28;20185;-73
2022/04/18 00:38:28;;;;;;;11.43;10.23;;;;;;;5.36;73.37;101146.22;5072943;28;20174;-71
2022/04/18 00:40:54;;;;;;;12.10;10.40;;;;;;;5.46;73.50;101146.25;5072981;28;20277;-72
2022/04/18 00:43:37;;;;;;;12.10;10.27;;;;;;;5.25;73.54;101139.88;5072929;28;20177;-72
2022/04/18 00:46:02;;;;;;;11.47;9.77;;;;;;;5.33;73.68;101142.09;5072992;28;20277;-72
2022/04/18 00:48:27;;;;;;;14.33;10.83;;;;;;;5.19;73.96;101130.06;5072886;28;20271;-71
2022/04/18 00:50:53;;;;;;;13.77;11.03;;;;;;;5.27;73.83;101135.03;5072938;28;20596;-72
2022/04/18 00:53:18;;;;;;;12.73;10.57;;;;;;;4.77;73.88;101130.81;5072606;28;20221;-72
2022/04/18 00:55:44;;;;;;;16.17;11.33;;;;;;;4.92;74.71;101132.84;5073192;28;20173;-73
2022/04/18 00:58:10;;;;;;;14.00;10.50;;;;;;;5.16;73.86;101140.59;5072974;28;20240;-72
2022/04/18 01:00:36;;;;;;;14.17;10.57;;;;;;;5.13;73.31;101136.53;5072661;28;20578;-72
2022/04/18 01:03:01;;;;;;;15.03;10.40;;;;;;;4.99;73.68;101132.63;5071519;28;20619;-72
2022/04/18 01:05:27;;;;;;;12.50;10.37;;;;;;;5.04;73.60;101124.53;5072701;28;20844;-74
2022/04/18 01:07:52;;;;;;;14.80;10.50;;;;;;;5.07;73.85;101126.75;5071122;28;20234;-72
2022/04/18 01:10:17;;;;;;;14.23;10.23;;;;;;;5.15;73.69;101125.44;5072596;28;20169;-72
2022/04/18 01:12:43;;;;;;;14.47;9.93;;;;;;;5.06;73.27;101125.06;5072897;28;20167;-72
2022/04/18 01:15:08;;;;;;;11.63;9.77;;;;;;;4.85;73.69;101121.38;5071079;28;20185;-72
2022/04/18 01:17:34;;;;;;;9.83;8.53;;;;;;;4.90;73.52;101120.59;5070652;28;20674;-72
2022/04/18 01:19:59;;;;;;;13.73;9.20;;;;;;;5.05;74.17;101118.84;5070974;28;20317;-72
2022/04/18 01:22:24;;;;;;;12.00;9.80;;;;;;;5.09;73.56;101116.47;5070997;28;20273;-71
2022/04/18 01:30:18;;;;;;;9.90;8.67;;;;;;;4.53;75.14;101094.28;5071848;28;20181;-72
2022/04/18 01:32:44;;;;;;;11.43;8.57;;;;;;;4.35;76.17;101097.34;5070820;28;20631;-72
2022/04/18 01:35:10;;;;;;;10.73;9.63;;;;;;;4.31;77.23;101098.91;5072078;28;20170;-72
2022/04/18 01:37:37;;;;;;;12.37;9.03;;;;;;;4.39;78.42;101090.34;5071888;28;20634;-72
2022/04/18 01:40:06;;;;;;;11.00;9.77;;;;;;;4.41;78.80;101091.72;5071970;28;20205;-72
2022/04/18 01:42:31;;;;;;;12.70;9.10;;;;;;;4.24;79.02;101093.69;5070198;28;20174;-71
2022/04/18 01:44:57;;;;;;;12.37;9.37;;;;;;;4.09;79.51;101083.53;5070085;28;20307;-73
2022/04/18 01:47:22;;;;;;;13.23;8.97;;;;;;;3.98;80.41;101081.75;5070101;28;20553;-73
2022/04/18 01:49:47;;;;;;;10.70;8.67;;;;;;;3.87;81.40;101088.09;5070487;28;20618;-72
2022/04/18 01:52:14;;;;;;;11.23;8.47;;;;;;;3.84;82.15;101084.03;5071686;28;20170;-73
2022/04/18 01:54:39;;;;;;;15.17;8.40;;;;;;;3.76;82.35;101080.94;5071692;28;20166;-73
2022/04/18 01:57:05;;;;;;;10.00;9.00;;;;;;;3.76;82.44;101084.47;5071666;28;20177;-72
2022/04/18 01:59:30;;;;;;;9.63;8.30;;;;;;;3.79;82.77;101081.25;5070282;28;20183;-72
2022/04/18 02:01:55;;;;;;;12.90;8.97;;;;;;;3.72;82.54;101079.78;5071649;28;20174;-72
2022/04/18 02:04:21;;;;;;;11.57;8.73;;;;;;;3.80;82.53;101079.38;5070160;28;20525;-72
2022/04/18 02:06:46;;;;;;;10.73;9.37;;;;;;;3.81;82.34;101086.41;5071113;28;20240;-72
2022/04/18 02:09:11;;;;;;;9.60;8.70;;;;;;;3.76;82.32;101089.88;5071802;28;20518;-72
2022/04/18 02:11:37;;;;;;;10.87;9.60;;;;;;;3.66;82.49;101084.31;5071530;28;20177;-71
2022/04/18 02:14:02;;;;;;;10.87;8.43;;;;;;;3.67;83.10;101077.84;5070059;28;20170;-73
2022/04/18 02:16:28;;;;;;;14.67;8.40;;;;;;;3.72;83.27;101080.63;5071472;28;20269;-73
2022/04/18 02:18:54;;;;;;;8.30;7.50;;;;;;;3.79;83.87;101069.63;5071286;28;20502;-72
2022/04/18 02:21:19;;;;;;;12.50;8.50;;;;;;;3.83;83.81;101073.47;5071322;28;20228;-74
2022/04/18 02:23:45;;;;;;;7.70;6.90;;;;;;;3.83;83.73;101073.47;5069926;28;20178;-72
2022/04/18 02:26:11;;;;;;;8.60;7.80;;;;;;;3.80;83.35;101066.69;5071264;28;20527;-74
2022/04/18 02:28:36;;;;;;;13.63;8.33;;;;;;;3.86;83.82;101079.19;5069563;28;20174;-73
2022/04/18 02:31:02;;;;;;;8.47;7.33;;;;;;;3.78;83.25;101074.22;5070789;28;20530;-74
2022/04/18 02:33:27;;;;;;;7.97;6.90;;;;;;;3.57;82.38;101069.59;5069886;28;20309;-72
2022/04/18 02:35:53;;;;;;;9.63;7.80;;;;;;;3.41;82.77;101070.47;5069838;28;20185;-77
2022/04/18 02:38:18;;;;;;;11.63;7.13;;;;;;;3.23;83.94;101066.97;5071103;28;20166;-74
2022/04/18 02:40:44;;;;;;;9.20;7.67;;;;;;;3.29;84.25;101073.25;5069792;28;20182;-72
2022/04/18 02:43:09;;;;;;;11.83;7.07;;;;;;;3.31;84.79;101070.31;5070160;28;20181;-75
2022/04/18 02:45:35;;;;;;;8.80;7.90;;;;;;;2.90;86.57;101075.91;5071024;28;20253;-74
2022/04/18 02:48:01;;;;;;;9.20;7.63;;;;;;;2.90;87.23;101075.09;5069519;28;20215;-73
2022/04/18 02:50:26;;;;;;;9.07;8.00;;;;;;;3.20;87.31;101070.19;5071024;28;20174;-73
2022/04/18 02:52:52;;;;;;;10.07;7.90;;;;;;;3.39;87.29;101081.50;5069697;28;20516;-72
2022/04/18 02:55:17;;;;;;;9.70;8.30;;;;;;;3.46;85.77;101076.75;5070918;28;20175;-72
2022/04/18 02:57:43;;;;;;;8.57;7.77;;;;;;;3.47;85.83;101072.16;5073268;28;20515;-73
2022/04/18 03:00:10;;;;;;;8.17;7.37;;;;;;;3.42;84.78;101067.50;5073689;28;20182;-72
2022/04/18 03:02:36;;;;;;;9.23;8.20;;;;;;;3.31;84.68;101070.31;5074909;28;20171;-73
2022/04/18 03:05:04;;;;;;;9.50;7.93;;;;;;;3.33;85.24;101068.16;5073544;28;20842;-72
2022/04/18 03:07:29;;;;;;;10.03;7.70;;;;;;;3.31;84.91;101068.41;5073261;28;20202;-74
2022/04/18 03:09:55;;;;;;;13.97;7.67;;;;;;;3.08;84.54;101058.66;5074796;28;20228;-72
2022/04/18 03:12:20;;;;;;;12.07;9.60;;;;;;;2.81;85.34;101058.47;5073547;28;20182;-74
2022/04/18 03:14:46;;;;;;;12.23;11.03;;;;;;;2.73;86.08;101061.56;5073473;28;20178;-72
2022/04/18 03:17:11;;;;;;;11.00;8.10;;;;;;;2.72;86.64;101053.72;5073264;28;20178;-73
2022/04/18 03:19:37;;;;;;;10.73;9.30;;;;;;;2.58;86.97;101058.59;5074305;28;20248;-74
2022/04/18 03:22:02;;;;;;;9.77;8.77;;;;;;;2.41;87.67;101052.38;5073055;28;20171;-72
2022/04/18 03:24:28;;;;;;;10.60;8.17;;;;;;;2.27;88.37;101049.97;5073192;28;20182;-75
2022/04/18 03:26:53;;;;;;;16.13;7.60;;;;;;;2.22;89.57;101043.69;5074181;28;20198;-72
2022/04/18 03:29:19;;;;;;;10.77;8.77;;;;;;;2.18;90.27;101053.31;5073141;28;20243;-71
2022/04/18 03:31:44;;;;;;;13.07;8.70;;;;;;;2.23;90.87;101046.13;5074123;28;20175;-71
2022/04/18 03:34:10;;;;;;;10.73;6.77;;;;;;;2.31;91.69;101043.03;5074208;28;20175;-76
2022/04/18 03:42:03;;;;;;;7.40;6.60;;;;;;;2.12;91.13;101038.91;5074110;28;20173;-72
2022/04/18 03:44:28;;;;;;;10.00;6.87;;;;;;;2.01;91.04;101050.53;5073788;28;20170;-74
2022/04/18 03:46:54;;;;;;;10.60;6.97;;;;;;;1.87;91.78;101049.19;5073819;28;20281;-77
2022/04/18 03:49:20;;;;;;;9.07;6.57;;;;;;;1.80;92.91;101043.94;5072636;28;20170;-73
2022/04/18 03:51:45;;;;;;;7.40;6.27;;;;;;;1.85;93.81;101051.31;5074128;28;20589;-72
2022/04/18 03:54:11;;;;;;;7.73;6.93;;;;;;;1.97;94.58;101047.50;5072619;28;20210;-72
2022/04/18 03:56:36;;;;;;;7.17;6.47;;;;;;;1.95;94.73;101035.34;5074265;28;20175;-72
2022/04/18 03:59:02;;;;;;;8.40;6.20;;;;;;;1.97;94.73;101034.03;5072488;28;20634;-75
2022/04/18 04:01:27;;;;;;;7.60;6.90;;;;;;;1.94;94.88;101031.00;5073820;28;20253;-73
2022/04/18 04:03:52;;;;;;;8.03;7.23;;;;;;;1.97;94.94;101028.66;5073565;28;20159;-73
2022/04/18 04:06:18;;;;;;;8.70;6.93;;;;;;;1.99;95.02;101031.91;5072008;28;20535;-72
2022/04/18 04:08:43;;;;;;;10.17;6.80;;;;;;;1.97;94.48;101031.34;5071108;28;20581;-72
2022/04/18 04:11:10;;;;;;;9.90;7.83;;;;;;;1.99;94.98;101029.22;5073211;28;20167;-72
2022/04/18 04:13:35;;;;;;;10.83;7.90;;;;;;;2.03;94.85;101024.19;5073170;28;20649;-72
2022/04/18 04:16:01;;;;;;;8.87;7.90;;;;;;;2.06;94.23;101029.09;5073163;28;20198;-72
2022/04/18 04:18:26;;;;;;;10.40;7.47;;;;;;;2.11;94.26;101031.88;5072906;28;20170;-73
2022/04/18 04:20:51;;;;;;;9.10;7.23;;;;;;;2.18;94.33;101035.25;5071968;28;20257;-72
2022/04/18 04:23:17;;;;;;;11.50;7.27;;;;;;;2.09;94.02;101036.69;5073307;28;20166;-72
2022/04/18 04:25:42;;;;;;;10.67;7.53;;;;;;;2.03;93.87;101026.88;5072857;28;20166;-72
2022/04/18 04:28:07;;;;;;;11.60;8.47;;;;;;;1.94;94.02;101031.00;5071336;28;20214;-71
2022/04/18 04:30:33;;;;;;;7.20;6.50;;;;;;;1.86;94.03;101023.31;5072690;28;20173;-73
2022/04/18 04:32:58;;;;;;;8.03;7.27;;;;;;;1.78;94.50;101033.41;5072889;28;20221;-72
2022/04/18 04:35:23;;;;;;;9.30;7.00;;;;;;;1.86;94.81;101028.69;5072680;28;20634;-73
2022/04/18 04:37:49;;;;;;;9.67;7.47;;;;;;;1.94;95.40;101026.44;5071199;28;20197;-71
2022/04/18 04:40:15;;;;;;;7.23;6.60;;;;;;;2.04;95.95;101029.34;5071515;28;20293;-74
2022/04/18 04:42:40;;;;;;;11.07;7.17;;;;;;;2.12;96.46;101033.50;5072662;28;20174;-72
2022/04/18 04:45:06;;;;;;;7.70;7.00;;;;;;;2.04;96.17;101023.97;5071323;28;20174;-71
2022/04/18 04:47:31;;;;;;;9.87;7.27;;;;;;;1.89;95.12;101025.53;5071035;28;20205;-73
2022/04/18 04:49:57;;;;;;;7.67;6.37;;;;;;;1.75;95.07;101030.38;5071129;28;20174;-72
2022/04/18 04:52:22;;;;;;;8.00;7.20;;;;;;;1.81;95.91;101026.72;5072755;28;20252;-71
2022/04/18 04:54:49;;;;;;;8.47;7.67;;;;;;;1.92;96.20;101022.34;5072276;28;20253;-72
2022/04/18 04:57:14;;;;;;;8.63;7.27;;;;;;;1.94;96.46;101025.63;5070842;28;20193;-72
2022/04/18 04:59:39;;;;;;;7.57;6.73;;;;;;;1.90;96.64;101019.09;5071184;28;20180;-72
2022/04/18 05:02:05;;;;;;;9.27;7.77;;;;;;;1.89;96.61;101020.16;5072708;28;20253;-72
2022/04/18 05:04:31;;;;;;;8.03;7.23;;;;;;;2.00;97.14;101024.66;5072188;28;20178;-73
2022/04/18 05:06:56;;;;;;;9.27;7.03;;;;;;;2.09;97.62;101024.03;5072022;28;20233;-72
2022/04/18 05:09:21;;;;;;;7.67;6.90;;;;;;;2.12;97.13;101024.63;5072077;28;20643;-73
2022/04/18 05:11:47;;;;;;;8.73;7.83;;;;;;;2.26;97.42;101018.69;5072124;28;20377;-71
2022/04/18 05:14:14;;;;;;;10.97;8.23;;;;;;;2.34;97.58;101021.00;5072022;28;20175;-72
2022/04/18 05:16:40;;;;;;;9.53;7.90;;;;;;;2.52;97.77;101021.84;5072204;28;20175;-72
2022/04/18 05:19:06;;;;;;;8.50;7.60;;;;;;;2.68;97.76;101018.31;5071773;28;20195;-72
2022/04/18 05:21:31;;;;;;;7.93;7.23;;;;;;;2.84;98.03;101012.13;5069431;28;20182;-73
2022/04/18 05:23:57;;;;;;;10.73;8.00;;;;;;;2.95;96.26;101019.31;5071726;28;20712;-73
2022/04/18 05:26:22;;;;;;;9.23;8.43;;;;;;;3.01;93.69;101027.47;5071969;28;20244;-73
2022/04/18 05:28:47;;;;;;;10.10;9.13;;;;;;;3.12;92.82;101023.88;5071587;28;20702;-76
2022/04/18 05:31:13;;;;;;;9.73;8.73;;;;;;;3.19;91.08;101019.94;5069948;28;20185;-73
2022/04/18 05:33:38;;;;;;;9.40;8.40;;;;;;;3.29;89.89;101020.06;5071729;28;20228;-73
2022/04/18 05:36:04;;;;;;;12.40;9.17;;;;;;;3.34;88.84;101027.44;5070440;28;20626;-73
2022/04/18 05:38:32;;;;;;;8.93;8.03;;;;;;;3.43;88.52;101022.41;5070081;28;20656;-73
2022/04/18 05:40:57;;;;;;;9.03;8.23;;;;;;;3.51;87.87;101024.69;5070134;28;20548;-72
2022/04/18 05:43:42;;;;;;;9.60;8.43;;;;;;;3.61;86.84;101015.88;5086754;28;20526;-73
2022/04/18 05:46:08;;;;;;;8.80;7.93;;;;;;;3.71;86.92;101021.41;5088171;28;20349;-73
2022/04/18 05:48:33;;;;;;;9.97;8.13;;;;;;;3.82;86.98;101012.38;5088044;28;20698;-73
2022/04/18 05:50:59;;;;;;;8.90;7.90;;;;;;;3.98;85.15;101021.47;5088008;28;20243;-72
2022/04/18 05:53:28;;;;;;;9.07;8.27;;;;;;;4.06;84.12;101021.03;5088098;28;20252;-73
2022/04/18 05:55:54;;;;;;;8.27;7.50;;;;;;;4.11;83.78;101027.31;5088069;28;20228;-72
2022/04/18 05:58:19;;;;;;;9.47;7.57;;;;;;;4.22;83.91;101038.25;5087980;28;20205;-73
2022/04/18 06:00:45;;;;;;;8.53;7.73;;;;;;;4.39;83.69;101041.66;5088033;28;20534;-73
2022/04/18 06:03:11;;;;;;;8.57;7.77;;;;;;;4.52;83.24;101038.53;5087948;28;20208;-74
2022/04/18 06:05:36;;;;;;;8.57;7.57;;;;;;;4.62;82.52;101043.22;5087830;28;20645;-72
2022/04/18 06:08:03;;;;;;;8.93;8.10;;;;;;;4.71;82.14;101033.56;5087684;28;20245;-72
2022/04/18 06:10:28;;;;;;;9.50;8.47;;;;;;;4.82;81.47;101034.47;5087915;28;20177;-73
2022/04/18 06:12:54;;;;;;;9.37;8.60;;;;;;;4.87;80.98;101035.31;5087828;28;20170;-74
2022/04/18 06:15:20;;;;;;;9.47;8.57;;;;;;;5.01;80.98;101043.81;5088165;28;20166;-72
2022/04/18 06:17:45;;;;;;;9.67;7.60;;;;;;;5.13;80.54;101035.50;5092033;28;20663;-72
2022/04/18 06:20:10;;;;;;;8.90;8.10;;;;;;;5.23;79.81;101033.69;5096071;28;20171;-72
2022/04/18 06:22:36;;;;;;;9.13;8.07;;;;;;;5.33;79.72;101039.16;5088738;28;20198;-72
2022/04/18 06:25:01;;;;;;;10.27;9.33;;;;;;;5.42;80.68;101033.25;5082695;28;20183;-72
2022/04/18 06:27:26;;;;;;;10.83;9.40;;;;;;;5.45;81.45;101030.00;5087506;28;20271;-73
2022/04/18 06:29:52;;;;;;;10.20;9.20;;;;;;;5.50;82.12;101027.34;5087802;28;20672;-72
2022/04/18 06:32:17;;;;;;;10.83;9.73;;;;;;;5.48;82.68;101030.28;5084066;28;20205;-73
2022/04/18 06:34:42;;;;;;;8.23;7.43;;;;;;;5.80;81.18;101035.63;5087317;28;20257;-73
2022/04/18 06:37:08;;;;;;;9.20;6.90;;;;;;;5.87;79.56;101033.47;5085183;28;20184;-72
2022/04/18 06:39:34;;;;;;;7.47;6.77;;;;;;;6.06;79.33;101036.53;5086868;28;20178;-74
2022/04/18 06:42:00;;;;;;;6.93;6.17;;;;;;;6.11;77.75;101030.31;5087087;28;20207;-72
2022/04/18 06:44:25;;;;;;;8.60;7.30;;;;;;;6.36;76.03;101026.84;5086954;28;20174;-72
2022/04/18 06:46:51;;;;;;;6.87;6.17;;;;;;;6.49;74.22;101026.31;5086897;28;20219;-73
2022/04/18 06:49:16;;;;;;;8.83;7.03;;;;;;;6.61;74.34;101028.78;5087527;28;20668;-72
2022/04/18 06:51:42;;;;;;;10.77;8.30;;;;;;;6.58;73.50;101030.13;5087132;28;20654;-72
2022/04/18 06:54:07;;;;;;;8.17;7.03;;;;;;;6.69;74.50;101025.53;5077676;28;20170;-73
2022/04/18 06:59:17;;;;;;;9.37;7.70;;;;;;;6.90;74.27;101026.34;5073312;28;20536;-72
2022/04/18 07:01:43;;;;;;;9.60;8.50;;;;;;;7.05;75.14;101023.59;5073339;28;20232;-72
2022/04/18 07:04:08;;;;;;;8.30;7.60;;;;;;;7.15;75.16;101024.41;5070875;28;20636;-73
2022/04/18 07:06:34;;;;;;;9.03;8.13;;;;;;;7.39;74.86;101030.09;5072646;28;20487;-72
2022/04/18 07:08:59;;;;;;;10.53;7.87;;;;;;;7.57;73.37;101031.38;5072789;28;20635;-72
2022/04/18 07:11:24;;;;;;;8.17;7.37;;;;;;;7.56;71.20;101027.03;5073091;28;20189;-72
2022/04/18 07:13:49;;;;;;;7.93;7.13;;;;;;;7.59;70.88;101018.31;5073090;28;20266;-72
2022/04/18 07:16:15;;;;;;;7.97;7.10;;;;;;;7.69;70.76;101018.28;5073031;28;20174;-73
2022/04/18 07:18:40;;;;;;;8.00;7.13;;;;;;;7.79;69.69;101022.06;5072902;28;20623;-72
2022/04/18 07:21:05;;;;;;;9.47;7.47;;;;;;;7.88;69.40;101017.66;5072919;28;20174;-72
2022/04/18 07:23:31;;;;;;;8.53;7.40;;;;;;;7.89;69.13;101014.66;5072919;28;20179;-73
2022/04/18 07:25:57;;;;;;;8.60;7.80;;;;;;;8.05;69.03;101018.94;5072845;28;20221;-72
2022/04/18 07:28:23;;;;;;;7.13;6.53;;;;;;;8.19;68.43;101015.59;5072600;28;20593;-72
2022/04/18 07:30:48;;;;;;;8.33;7.40;;;;;;;8.17;68.01;101010.44;5072609;28;20209;-73
2022/04/18 07:33:14;;;;;;;9.03;7.80;;;;;;;8.41;67.83;101012.50;5072656;28;20206;-72
2022/04/18 07:35:40;;;;;;;7.20;6.50;;;;;;;8.70;67.93;101016.09;5072688;28;20174;-73
2022/04/18 07:40:49;;;;;;;8.53;6.73;;;;;;;8.86;67.77;101014.06;5064875;28;20216;-73
2022/04/18 07:43:15;;;;;;;7.03;6.33;;;;;;;8.89;67.00;101008.84;5071201;28;20240;-72
2022/04/18 07:45:40;;;;;;;7.70;7.00;;;;;;;8.95;65.90;101009.59;5072551;28;20220;-72
2022/04/18 07:48:09;;;;;;;8.17;7.03;;;;;;;8.99;66.34;101012.59;5072135;28;20171;-73
2022/04/18 07:53:19;;;;;;;9.17;7.57;;;;;;;9.40;66.05;101013.81;5072313;28;20185;-73
2022/04/18 07:55:44;;;;;;;7.57;6.83;;;;;;;9.05;65.58;101008.72;5072211;28;20167;-72
2022/04/18 07:58:09;;;;;;;9.47;8.00;;;;;;;9.46;66.75;101007.19;5072070;28;20167;-73
2022/04/18 08:00:35;;;;;;;8.53;7.83;;;;;;;9.27;65.60;101002.78;5072083;28;20174;-73
2022/04/18 08:03:00;;;;;;;8.33;7.33;;;;;;;9.39;65.89;101006.72;5072141;28;20201;-72
2022/04/18 08:05:26;;;;;;;7.83;7.07;;;;;;;9.48;66.86;101004.97;5071040;28;20166;-74
2022/04/18 08:07:51;;;;;;;8.30;7.03;;;;;;;9.53;65.27;101004.91;5053940;28;20609;-72
2022/04/18 08:10:16;;;;;;;10.27;7.70;;;;;;;9.64;66.05;101012.97;5072029;28;20181;-73
2022/04/18 08:12:42;;;;;;;8.47;6.93;;;;;;;9.82;65.02;101004.00;5053991;28;20175;-72
2022/04/18 08:15:08;;;;;;;9.03;8.13;;;;;;;9.82;66.01;101004.00;5071875;28;20193;-73
2022/04/18 08:17:34;;;;;;;7.90;7.03;;;;;;;10.01;65.63;101010.34;5071617;28;20166;-72
2022/04/18 08:19:59;;;;;;;7.40;6.70;;;;;;;10.23;62.84;101003.50;5071799;28;20254;-73
2022/04/18 08:22:24;;;;;;;11.87;7.57;;;;;;;10.17;63.38;100999.19;5071615;28;20190;-73
2022/04/18 08:24:50;;;;;;;7.33;6.63;;;;;;;10.31;63.95;100998.19;5071800;28;20626;-72
2022/04/18 08:27:15;;;;;;;8.33;7.60;;;;;;;10.72;64.09;101001.13;5071758;28;20173;-73
2022/04/18 08:29:40;;;;;;;7.00;6.30;;;;;;;10.66;64.16;100991.34;5071816;28;20665;-73
2022/04/18 08:32:06;;;;;;;7.00;6.30;;;;;;;10.73;62.63;100988.25;5053888;28;20181;-73
2022/04/18 08:34:31;;;;;;;5.73;5.23;;;;;;;10.75;60.08;100993.41;5071425;28;20170;-74
2022/04/18 08:36:56;;;;;;;5.83;5.23;;;;;;;10.86;59.84;100987.50;5071701;28;20171;-72
2022/04/18 08:39:23;;;;;;;6.17;5.47;;;;;;;11.03;61.51;100985.00;5071337;28;20539;-73
2022/04/18 08:41:51;;;;;;;7.53;5.87;;;;;;;11.18;60.17;100983.91;5071227;28;20214;-73
2022/04/18 08:44:19;;;;;;;6.23;5.60;;;;;;;11.21;59.08;100980.56;5071383;28;20167;-73
2022/04/18 08:46:46;;;;;;;6.20;5.60;;;;;;;11.14;58.46;100982.88;5071101;28;20178;-73
2022/04/18 08:54:41;;;;;;;5.43;4.73;;;;;;;11.47;56.86;100982.81;5071114;28;20252;-73
2022/04/18 08:57:07;;;;;;;6.87;6.17;;;;;;;11.61;57.42;100970.75;5070841;28;20167;-72
2022/04/18 08:59:32;;;;;;;8.27;5.60;;;;;;;11.86;58.21;100977.66;5071358;28;20190;-73
2022/04/18 09:01:57;;;;;;;7.07;5.33;;;;;;;12.10;57.02;100973.81;5071011;28;20681;-72
2022/04/18 09:04:23;;;;;;;6.27;5.67;;;;;;;12.07;56.93;100958.00;5070992;28;20171;-73
2022/04/18 09:06:48;;;;;;;7.03;6.10;;;;;;;12.19;58.26;100971.97;5070767;28;20261;-72
2022/04/18 09:09:14;;;;;;;6.03;5.50;;;;;;;11.95;56.21;100963.22;5070799;28;20174;-73
2022/04/18 09:11:42;;;;;;;6.20;5.60;;;;;;;12.05;59.02;100963.81;5052794;28;20534;-72
2022/04/18 09:14:09;;;;;;;6.37;5.77;;;;;;;12.08;58.24;100954.97;5070832;28;20175;-73
2022/04/18 09:16:35;;;;;;;6.77;6.00;;;;;;;12.10;58.78;100941.75;5070456;28;20222;-73
2022/04/18 09:19:05;;;;;;;7.17;6.53;;;;;;;12.06;58.35;100943.50;5052631;28;20183;-73
2022/04/18 09:21:30;;;;;;;8.30;6.33;;;;;;;11.99;57.32;100936.81;5070841;28;20234;-73
2022/04/18 09:23:56;;;;;;;6.57;5.97;;;;;;;12.30;56.76;100937.75;5070685;28;20209;-73
2022/04/18 09:26:22;;;;;;;6.90;6.27;;;;;;;12.24;55.97;100929.94;5052636;28;20196;-72
2022/04/18 09:28:47;;;;;;;6.27;5.77;;;;;;;12.43;56.76;100934.13;5070705;28;20615;-72
2022/04/18 09:31:17;;;;;;;6.33;5.73;;;;;;;12.46;55.59;100928.03;5070777;28;20170;-73
2022/04/18 09:33:45;;;;;;;6.10;5.50;;;;;;;12.75;57.42;100932.25;5070589;28;20178;-73
2022/04/18 09:36:19;;;;;;;7.93;5.60;;;;;;;12.82;54.49;100929.84;5070233;28;20182;-73
2022/04/18 09:38:49;;;;;;;6.27;5.17;;;;;;;12.76;52.29;100926.44;5069993;28;20175;-73
2022/04/18 09:41:20;;;;;;;5.20;4.70;;;;;;;12.81;51.51;100922.75;5070169;28;20654;-73
2022/04/18 09:43:48;;;;;;;6.53;5.27;;;;;;;12.86;52.09;100911.63;5070479;28;20181;-73
2022/04/18 09:46:14;;;;;;;6.33;5.23;;;;;;;12.74;50.94;100914.19;5070281;28;20588;-73
2022/04/18 09:48:41;;;;;;;5.27;4.77;;;;;;;12.60;50.91;100906.03;5069849;28;20197;-73
2022/04/18 09:51:11;;;;;;;7.10;4.87;;;;;;;12.82;50.45;100907.91;5070252;28;20217;-73
2022/04/18 09:53:38;;;;;;;5.87;3.93;;;;;;;12.77;49.53;100905.31;5070036;28;20170;-74
2022/04/18 09:56:04;;;;;;;4.47;3.13;;;;;;;12.68;47.88;100898.97;5070034;28;20177;-72
2022/04/18 09:58:32;;;;;;;5.30;4.73;;;;;;;12.43;49.75;100900.41;5069982;28;20178;-73
2022/04/18 10:01:00;;;;;;;5.53;5.03;;;;;;;12.78;51.02;100890.47;5069986;28;20178;-73
2022/04/18 10:03:25;;;;;;;4.50;4.10;;;;;;;13.08;50.64;100899.81;5069929;28;20538;-72
2022/04/18 10:05:51;;;;;;;4.70;4.30;;;;;;;13.04;49.86;100885.94;5069957;28;20174;-73
2022/04/18 10:08:18;;;;;;;4.80;4.40;;;;;;;13.07;49.93;100884.47;5069747;28;20183;-73
2022/04/18 10:10:44;;;;;;;4.37;4.03;;;;;;;12.92;50.83;100891.19;5069914;28;20266;-72
2022/04/18 10:13:09;;;;;;;5.37;4.73;;;;;;;12.86;50.71;100878.72;5069972;28;20552;-73
2022/04/18 10:15:39;;;;;;;4.60;4.20;;;;;;;13.04;50.76;100877.69;5069949;28;20174;-74
2022/04/18 10:18:07;;;;;;;5.20;4.70;;;;;;;13.01;49.63;100866.53;5069500;28;20175;-73
2022/04/18 10:21:13;;;;;;;4.47;4.07;;;;;;;13.01;47.85;100867.34;5070303;28;20454;-74
2022/04/18 10:24:16;;;;;;;3.53;3.23;;;;;;;12.98;46.62;100861.69;5069987;28;20182;-73
2022/04/18 10:27:12;;;;;;;3.03;2.83;;;;;;;12.94;45.71;100856.03;5069974;28;20265;-73
2022/04/18 10:29:58;;;;;;;3.73;3.43;;;;;;;13.16;47.08;100854.31;5072346;28;20176;-74
2022/04/18 10:32:26;;;;;;;3.83;3.53;;;;;;;13.29;47.69;100858.91;5073580;28;20182;-72
2022/04/18 10:34:56;;;;;;;4.03;3.73;;;;;;;13.31;47.77;100851.19;5073714;28;20504;-72
2022/04/18 10:37:23;;;;;;;4.20;3.90;;;;;;;13.13;45.81;100850.28;5073246;28;20184;-73
2022/04/18 10:39:59;;;;;;;3.40;3.10;;;;;;;13.01;45.36;100841.84;5073448;28;20304;-73
2022/04/18 10:42:30;;;;;;;3.67;3.37;;;;;;;13.50;46.10;100848.16;5073109;28;20248;-73
2022/04/18 10:45:08;;;;;;;5.70;4.33;;;;;;;13.73;46.70;100849.59;5073445;28;20214;-73
2022/04/18 10:47:55;;;;;;;4.20;3.80;;;;;;;13.86;46.68;100842.34;5073025;28;20217;-72
2022/04/18 10:50:22;;;;;;;3.93;3.63;;;;;;;13.83;45.73;100838.31;5073427;28;20179;-73
2022/04/18 10:53:15;;;;;;;3.53;3.23;;;;;;;13.92;45.74;100841.06;5073203;28;20174;-73
2022/04/18 10:55:53;;;;;;;4.17;3.80;;;;;;;14.00;46.23;100841.03;5073167;28;20179;-74
2022/04/18 10:58:23;;;;;;;3.73;3.43;;;;;;;14.15;46.69;100836.97;5073025;28;20535;-73
2022/04/18 11:00:53;;;;;;;4.63;4.23;;;;;;;13.98;44.92;100832.31;5073176;28;20179;-73
2022/04/18 11:03:37;;;;;;;4.67;3.77;;;;;;;13.89;44.35;100838.97;5072868;28;20277;-72
2022/04/18 11:06:10;;;;;;;4.80;4.27;;;;;;;13.45;44.43;100824.38;5073297;28;20186;-73
2022/04/18 11:08:38;;;;;;;4.63;3.73;;;;;;;13.91;45.57;100832.00;5068659;28;20631;-74
2022/04/18 11:11:05;;;;;;;3.67;3.37;;;;;;;13.79;44.19;100828.28;5071569;28;20269;-73
2022/04/18 11:13:33;;;;;;;4.00;3.37;;;;;;;13.52;44.11;100827.47;5073003;28;20269;-75
2022/04/18 11:16:42;;;;;;;4.27;3.47;;;;;;;13.96;44.79;100831.03;5072900;28;20178;-73
2022/04/18 11:19:08;;;;;;;4.10;3.70;;;;;;;14.05;42.75;100822.78;4971650;28;20190;-74
2022/04/18 11:24:35;;;;;;;3.60;3.30;;;;;;;14.47;42.87;100816.41;5037216;28;20354;-72
2022/04/18 11:27:02;;;;;;;3.50;3.20;;;;;;;14.50;42.54;100810.25;5072488;28;20181;-72
2022/04/18 11:29:33;;;;;;;3.67;3.37;;;;;;;14.29;41.98;100804.63;5072897;28;20541;-74
2022/04/18 11:31:59;;;;;;;3.90;3.60;;;;;;;14.24;42.43;100807.56;5073050;28;20158;-74
2022/04/18 11:34:26;;;;;;;4.03;3.63;;;;;;;14.41;41.97;100808.63;5072592;28;20257;-75
2022/04/18 11:36:56;;;;;;;3.80;3.50;;;;;;;14.36;42.09;100800.56;5054499;28;20699;-75
2022/04/18 11:39:22;;;;;;;3.77;3.47;;;;;;;14.30;42.76;100795.22;5072228;28;20179;-75
2022/04/18 11:41:47;;;;;;;4.73;3.53;;;;;;;14.23;41.80;100794.13;5054242;28;20271;-75
2022/04/18 11:44:18;;;;;;;4.70;4.17;;;;;;;14.52;44.35;100794.25;5072416;28;20377;-74
2022/04/18 11:46:43;;;;;;;4.07;3.77;;;;;;;14.78;43.86;100796.88;5072094;28;20183;-73
2022/04/18 11:49:09;;;;;;;4.30;3.90;;;;;;;15.00;42.90;100784.78;5072191;28;20171;-72
2022/04/18 11:51:39;;;;;;;5.53;4.50;;;;;;;14.42;42.90;100778.06;5072350;28;20183;-73
2022/04/18 11:54:04;;;;;;;5.43;4.93;;;;;;;13.91;43.99;100793.56;5072042;28;20175;-74